sensor_id;sensor_type;location;lat;lon;timestamp;pressure;altitude;pressure_sealevel;temperature;humidity
10127;BME280;13080;42.608;23.362;2022-10-30T00:01:19;93483.56;;;8.61;82.91
10127;BME280;13080;42.608;23.362;2022-10-30T00:03:46;93482.47;;;8.62;82.71
10127;BME280;13080;42.608;23.362;2022-10-30T00:06:14;93477.63;;;8.64;82.71
10127;BME280;13080;42.608;23.362;2022-10-30T00:08:41;93476.09;;;8.63;82.15
10127;BME280;13080;42.608;23.362;2022-10-30T00:11:09;93475.84;;;8.73;81.89
10127;BME280;13080;42.608;23.362;2022-10-30T00:13:36;93471.72;;;8.67;81.79
10127;BME280;13080;42.608;23.362;2022-10-30T00:16:05;93481.69;;;8.62;81.17
10127;BME280;13080;42.608;23.362;2022-10-30T00:18:34;93470.56;;;8.60;81.24
10127;BME280;13080;42.608;23.362;2022-10-30T00:21:04;93468.75;;;8.69;80.92
10127;BME280;13080;42.608;23.362;2022-10-30T00:23:32;93466.94;;;8.56;81.66
10127;BME280;13080;42.608;23.362;2022-10-30T00:26:02;93464.56;;;8.54;82.23
10127;BME280;13080;42.608;23.362;2022-10-30T00:28:29;93478.47;;;8.51;82.15
10127;BME280;13080;42.608;23.362;2022-10-30T00:30:58;93477.56;;;8.56;82.55
10127;BME280;13080;42.608;23.362;2022-10-30T00:33:24;93473.63;;;8.53;82.51
10127;BME280;13080;42.608;23.362;2022-10-30T00:35:51;93473.34;;;8.55;82.29
10127;BME280;13080;42.608;23.362;2022-10-30T00:38:18;93463.50;;;8.55;81.67
10127;BME280;13080;42.608;23.362;2022-10-30T00:40:46;93466.06;;;8.46;81.47
10127;BME280;13080;42.608;23.362;2022-10-30T00:43:27;93464.19;;;8.47;81.26
10127;BME280;13080;42.608;23.362;2022-10-30T00:45:55;93464.50;;;8.45;81.42
10127;BME280;13080;42.608;23.362;2022-10-30T00:48:24;93458.00;;;8.38;82.07
10127;BME280;13080;42.608;23.362;2022-10-30T00:50:52;93450.00;;;8.38;82.31
10127;BME280;13080;42.608;23.362;2022-10-30T00:53:20;93448.84;;;8.44;81.95
10127;BME280;13080;42.608;23.362;2022-10-30T00:55:50;93454.25;;;8.52;81.93
10127;BME280;13080;42.608;23.362;2022-10-30T00:58:25;93448.38;;;8.64;81.08
10127;BME280;13080;42.608;23.362;2022-10-30T01:00:56;93450.63;;;8.71;80.85
10127;BME280;13080;42.608;23.362;2022-10-30T01:03:25;93453.28;;;8.71;80.11
10127;BME280;13080;42.608;23.362;2022-10-30T01:05:57;93449.06;;;8.70;79.33
10127;BME280;13080;42.608;23.362;2022-10-30T01:08:26;93446.84;;;8.72;78.80
10127;BME280;13080;42.608;23.362;2022-10-30T01:10:56;93449.34;;;8.68;78.98
10127;BME280;13080;42.608;23.362;2022-10-30T01:13:24;93449.66;;;8.67;79.59
10127;BME280;13080;42.608;23.362;2022-10-30T01:16:09;93440.09;;;8.66;80.46
10127;BME280;13080;42.608;23.362;2022-10-30T01:18:45;93439.28;;;8.65;81.29
10127;BME280;13080;42.608;23.362;2022-10-30T01:21:35;93434.88;;;8.61;81.75
10127;BME280;13080;42.608;23.362;2022-10-30T01:24:21;93427.03;;;8.56;81.72
10127;BME280;13080;42.608;23.362;2022-10-30T01:26:58;93414.50;;;8.56;81.20
10127;BME280;13080;42.608;23.362;2022-10-30T01:29:34;93407.34;;;8.57;81.38
10127;BME280;13080;42.608;23.362;2022-10-30T01:32:18;93414.22;;;8.58;81.45
10127;BME280;13080;42.608;23.362;2022-10-30T01:34:54;93406.94;;;8.49;81.73
10127;BME280;13080;42.608;23.362;2022-10-30T01:37:29;93414.28;;;8.44;82.05
10127;BME280;13080;42.608;23.362;2022-10-30T01:40:03;93411.31;;;8.31;83.39
10127;BME280;13080;42.608;23.362;2022-10-30T01:42:48;93415.38;;;8.29;84.46
10127;BME280;13080;42.608;23.362;2022-10-30T01:45:22;93409.50;;;8.18;84.15
10127;BME280;13080;42.608;23.362;2022-10-30T01:48:00;93416.69;;;8.18;85.89
10127;BME280;13080;42.608;23.362;2022-10-30T01:50:37;93419.66;;;8.02;86.53
10127;BME280;13080;42.608;23.362;2022-10-30T01:53:16;93419.28;;;7.95;87.75
10127;BME280;13080;42.608;23.362;2022-10-30T01:55:54;93416.38;;;7.83;87.95
10127;BME280;13080;42.608;23.362;2022-10-30T01:58:33;93405.94;;;7.73;88.61
10127;BME280;13080;42.608;23.362;2022-10-30T02:01:03;93405.66;;;7.74;88.28
10127;BME280;13080;42.608;23.362;2022-10-30T02:03:30;93404.78;;;7.79;87.93
10127;BME280;13080;42.608;23.362;2022-10-30T02:05:56;93397.28;;;7.81;87.61
10127;BME280;13080;42.608;23.362;2022-10-30T02:08:23;93398.34;;;7.80;87.09
10127;BME280;13080;42.608;23.362;2022-10-30T02:10:51;93395.53;;;7.76;86.03
10127;BME280;13080;42.608;23.362;2022-10-30T02:13:19;93393.16;;;7.75;86.70
10127;BME280;13080;42.608;23.362;2022-10-30T02:15:48;93389.22;;;7.72;86.32
10127;BME280;13080;42.608;23.362;2022-10-30T02:18:15;93392.97;;;7.71;86.09
10127;BME280;13080;42.608;23.362;2022-10-30T02:20:43;93397.97;;;7.73;85.67
10127;BME280;13080;42.608;23.362;2022-10-30T02:23:10;93394.16;;;7.79;86.21
10127;BME280;13080;42.608;23.362;2022-10-30T02:25:43;93393.34;;;7.64;86.60
10127;BME280;13080;42.608;23.362;2022-10-30T02:28:09;93395.44;;;7.67;86.32
10127;BME280;13080;42.608;23.362;2022-10-30T02:30:36;93396.81;;;7.65;85.55
10127;BME280;13080;42.608;23.362;2022-10-30T02:33:03;93402.91;;;7.65;85.00
10127;BME280;13080;42.608;23.362;2022-10-30T02:35:30;93399.16;;;7.66;84.87
10127;BME280;13080;42.608;23.362;2022-10-30T02:38:01;93393.56;;;7.68;83.79
10127;BME280;13080;42.608;23.362;2022-10-30T02:40:27;93390.69;;;7.64;83.11
10127;BME280;13080;42.608;23.362;2022-10-30T02:42:54;93395.72;;;7.66;82.37
10127;BME280;13080;42.608;23.362;2022-10-30T02:45:21;93399.28;;;7.61;82.47
10127;BME280;13080;42.608;23.362;2022-10-30T02:47:48;93401.25;;;7.56;82.64
10127;BME280;13080;42.608;23.362;2022-10-30T02:50:15;93405.28;;;7.53;83.18
10127;BME280;13080;42.608;23.362;2022-10-30T02:52:42;93389.44;;;7.48;84.43
10127;BME280;13080;42.608;23.362;2022-10-30T02:55:10;93397.63;;;7.52;85.18
10127;BME280;13080;42.608;23.362;2022-10-30T02:57:37;93399.78;;;7.49;85.83
10127;BME280;13080;42.608;23.362;2022-10-30T03:00:05;93399.97;;;7.53;86.34
10127;BME280;13080;42.608;23.362;2022-10-30T03:02:31;93408.53;;;7.50;87.11
10127;BME280;13080;42.608;23.362;2022-10-30T03:04:58;93408.75;;;7.54;88.07
10127;BME280;13080;42.608;23.362;2022-10-30T03:07:25;93401.16;;;7.47;88.93
10127;BME280;13080;42.608;23.362;2022-10-30T03:09:52;93401.66;;;7.49;90.52
10127;BME280;13080;42.608;23.362;2022-10-30T03:12:20;93412.66;;;7.56;91.58
10127;BME280;13080;42.608;23.362;2022-10-30T03:14:47;93412.16;;;7.54;92.80
10127;BME280;13080;42.608;23.362;2022-10-30T03:17:14;93412.78;;;7.51;91.83
10127;BME280;13080;42.608;23.362;2022-10-30T03:19:41;93425.56;;;7.49;91.43
10127;BME280;13080;42.608;23.362;2022-10-30T03:22:07;93418.09;;;7.51;91.98
10127;BME280;13080;42.608;23.362;2022-10-30T03:24:34;93417.47;;;7.54;92.52
10127;BME280;13080;42.608;23.362;2022-10-30T03:27:01;93422.78;;;7.54;93.70
10127;BME280;13080;42.608;23.362;2022-10-30T03:29:29;93423.69;;;7.49;94.80
10127;BME280;13080;42.608;23.362;2022-10-30T03:31:56;93418.47;;;7.44;96.38
10127;BME280;13080;42.608;23.362;2022-10-30T03:34:22;93425.94;;;7.56;97.92
10127;BME280;13080;42.608;23.362;2022-10-30T03:36:49;93420.53;;;7.47;97.46
10127;BME280;13080;42.608;23.362;2022-10-30T03:39:16;93415.44;;;7.51;98.15
10127;BME280;13080;42.608;23.362;2022-10-30T03:41:42;93407.84;;;7.58;98.56
10127;BME280;13080;42.608;23.362;2022-10-30T03:44:09;93398.59;;;7.56;99.36
10127;BME280;13080;42.608;23.362;2022-10-30T03:46:38;93398.50;;;7.61;99.84
10127;BME280;13080;42.608;23.362;2022-10-30T03:49:05;93388.75;;;7.56;98.86
10127;BME280;13080;42.608;23.362;2022-10-30T03:51:31;93391.09;;;7.58;98.09
10127;BME280;13080;42.608;23.362;2022-10-30T03:53:58;93406.25;;;7.57;97.84
10127;BME280;13080;42.608;23.362;2022-10-30T03:56:25;93397.69;;;7.46;99.22
10127;BME280;13080;42.608;23.362;2022-10-30T03:58:52;93409.69;;;7.44;98.51
10127;BME280;13080;42.608;23.362;2022-10-30T04:01:18;93406.75;;;7.45;99.11
10127;BME280;13080;42.608;23.362;2022-10-30T04:03:47;93407.06;;;7.30;99.95
10127;BME280;13080;42.608;23.362;2022-10-30T04:06:13;93405.06;;;7.22;99.00
10127;BME280;13080;42.608;23.362;2022-10-30T04:08:40;93403.72;;;7.24;98.85
10127;BME280;13080;42.608;23.362;2022-10-30T04:11:09;93400.19;;;7.29;97.72
10127;BME280;13080;42.608;23.362;2022-10-30T04:13:36;93392.91;;;7.35;96.76
10127;BME280;13080;42.608;23.362;2022-10-30T04:16:03;93382.47;;;7.38;97.31
10127;BME280;13080;42.608;23.362;2022-10-30T04:18:31;93381.88;;;7.41;97.43
10127;BME280;13080;42.608;23.362;2022-10-30T04:20:59;93388.19;;;7.45;96.70
10127;BME280;13080;42.608;23.362;2022-10-30T04:23:26;93393.78;;;7.44;97.17
10127;BME280;13080;42.608;23.362;2022-10-30T04:25:53;93395.94;;;7.42;95.44
10127;BME280;13080;42.608;23.362;2022-10-30T04:28:20;93389.94;;;7.36;96.28
10127;BME280;13080;42.608;23.362;2022-10-30T04:30:46;93397.63;;;7.38;96.59
10127;BME280;13080;42.608;23.362;2022-10-30T04:33:14;93396.81;;;7.37;96.60
10127;BME280;13080;42.608;23.362;2022-10-30T04:35:41;93397.81;;;7.27;96.96
10127;BME280;13080;42.608;23.362;2022-10-30T04:38:11;93398.19;;;7.21;97.25
10127;BME280;13080;42.608;23.362;2022-10-30T04:40:39;93396.31;;;7.21;96.83
10127;BME280;13080;42.608;23.362;2022-10-30T04:43:08;93400.47;;;7.27;97.73
10127;BME280;13080;42.608;23.362;2022-10-30T04:45:36;93394.94;;;7.24;97.54
10127;BME280;13080;42.608;23.362;2022-10-30T04:48:05;93394.16;;;7.23;97.91
10127;BME280;13080;42.608;23.362;2022-10-30T04:50:33;93396.53;;;7.25;98.05
10127;BME280;13080;42.608;23.362;2022-10-30T04:53:01;93394.06;;;7.28;96.55
10127;BME280;13080;42.608;23.362;2022-10-30T04:55:29;93398.41;;;7.38;96.85
10127;BME280;13080;42.608;23.362;2022-10-30T04:57:57;93404.59;;;7.34;97.05
10127;BME280;13080;42.608;23.362;2022-10-30T05:00:29;93396.25;;;7.26;97.45
10127;BME280;13080;42.608;23.362;2022-10-30T05:02:57;93401.34;;;7.23;97.35
10127;BME280;13080;42.608;23.362;2022-10-30T05:05:25;93404.59;;;7.20;97.33
10127;BME280;13080;42.608;23.362;2022-10-30T05:07:52;93409.59;;;7.21;96.72
10127;BME280;13080;42.608;23.362;2022-10-30T05:10:19;93419.44;;;7.21;97.05
10127;BME280;13080;42.608;23.362;2022-10-30T05:12:47;93409.03;;;7.24;98.28
10127;BME280;13080;42.608;23.362;2022-10-30T05:15:14;93403.72;;;7.24;97.90
10127;BME280;13080;42.608;23.362;2022-10-30T05:17:40;93404.00;;;7.23;98.29
10127;BME280;13080;42.608;23.362;2022-10-30T05:20:08;93404.59;;;7.20;99.04
10127;BME280;13080;42.608;23.362;2022-10-30T05:22:35;93414.03;;;7.26;99.35
10127;BME280;13080;42.608;23.362;2022-10-30T05:25:02;93407.94;;;7.25;98.74
10127;BME280;13080;42.608;23.362;2022-10-30T05:27:29;93414.34;;;7.24;99.19
10127;BME280;13080;42.608;23.362;2022-10-30T05:29:57;93414.34;;;7.24;99.33
10127;BME280;13080;42.608;23.362;2022-10-30T05:32:24;93413.75;;;7.27;99.77
10127;BME280;13080;42.608;23.362;2022-10-30T05:34:51;93415.78;;;7.31;99.92
10127;BME280;13080;42.608;23.362;2022-10-30T05:37:18;93415.91;;;7.39;99.15
10127;BME280;13080;42.608;23.362;2022-10-30T05:39:44;93405.38;;;7.48;98.33
10127;BME280;13080;42.608;23.362;2022-10-30T05:42:11;93419.13;;;7.64;97.23
10127;BME280;13080;42.608;23.362;2022-10-30T05:44:38;93411.88;;;7.69;96.95
10127;BME280;13080;42.608;23.362;2022-10-30T05:47:06;93419.81;;;7.83;95.95
10127;BME280;13080;42.608;23.362;2022-10-30T05:49:33;93418.31;;;7.91;95.32
10127;BME280;13080;42.608;23.362;2022-10-30T05:51:59;93421.25;;;8.03;96.69
10127;BME280;13080;42.608;23.362;2022-10-30T05:54:26;93421.16;;;8.08;96.58
10127;BME280;13080;42.608;23.362;2022-10-30T05:56:53;93423.38;;;8.15;95.36
10127;BME280;13080;42.608;23.362;2022-10-30T05:59:20;93423.75;;;8.22;94.97
10127;BME280;13080;42.608;23.362;2022-10-30T06:01:46;93422.06;;;8.26;94.43
10127;BME280;13080;42.608;23.362;2022-10-30T06:04:15;93420.59;;;8.34;94.04
10127;BME280;13080;42.608;23.362;2022-10-30T06:06:41;93418.59;;;8.40;93.93
10127;BME280;13080;42.608;23.362;2022-10-30T06:09:08;93412.09;;;8.46;94.01
10127;BME280;13080;42.608;23.362;2022-10-30T06:11:35;93411.19;;;8.50;93.99
10127;BME280;13080;42.608;23.362;2022-10-30T06:14:01;93407.78;;;8.59;93.93
10127;BME280;13080;42.608;23.362;2022-10-30T06:16:28;93414.94;;;8.72;93.88
10127;BME280;13080;42.608;23.362;2022-10-30T06:18:55;93413.34;;;8.93;92.80
10127;BME280;13080;42.608;23.362;2022-10-30T06:21:23;93419.78;;;8.92;92.84
10127;BME280;13080;42.608;23.362;2022-10-30T06:23:50;93423.09;;;8.98;91.34
10127;BME280;13080;42.608;23.362;2022-10-30T06:26:16;93414.31;;;8.98;91.34
10127;BME280;13080;42.608;23.362;2022-10-30T06:28:43;93411.09;;;9.09;90.53
10127;BME280;13080;42.608;23.362;2022-10-30T06:31:10;93415.19;;;9.15;89.96
10127;BME280;13080;42.608;23.362;2022-10-30T06:33:37;93412.25;;;9.26;89.55
10127;BME280;13080;42.608;23.362;2022-10-30T06:36:04;93410.09;;;9.36;89.66
10127;BME280;13080;42.608;23.362;2022-10-30T06:38:32;93414.84;;;9.48;90.10
10127;BME280;13080;42.608;23.362;2022-10-30T06:40:59;93416.47;;;9.58;89.59
10127;BME280;13080;42.608;23.362;2022-10-30T06:43:25;93417.75;;;9.69;89.38
10127;BME280;13080;42.608;23.362;2022-10-30T06:45:52;93419.97;;;9.76;87.29
10127;BME280;13080;42.608;23.362;2022-10-30T06:48:19;93426.59;;;9.87;86.78
10127;BME280;13080;42.608;23.362;2022-10-30T06:50:46;93419.03;;;9.81;88.17
10127;BME280;13080;42.608;23.362;2022-10-30T06:53:12;93411.81;;;9.81;88.51
10127;BME280;13080;42.608;23.362;2022-10-30T06:55:40;93410.88;;;9.86;88.71
10127;BME280;13080;42.608;23.362;2022-10-30T06:58:07;93413.75;;;9.98;89.10
10127;BME280;13080;42.608;23.362;2022-10-30T07:00:34;93426.66;;;10.31;87.36
10127;BME280;13080;42.608;23.362;2022-10-30T07:03:01;93426.03;;;10.25;87.81
10127;BME280;13080;42.608;23.362;2022-10-30T07:05:29;93433.84;;;10.22;86.95
10127;BME280;13080;42.608;23.362;2022-10-30T07:07:56;93441.69;;;10.09;87.31
10127;BME280;13080;42.608;23.362;2022-10-30T07:10:23;93439.16;;;10.04;87.39
10127;BME280;13080;42.608;23.362;2022-10-30T07:12:53;93438.53;;;10.07;87.71
10127;BME280;13080;42.608;23.362;2022-10-30T07:15:20;93424.28;;;10.12;87.42
10127;BME280;13080;42.608;23.362;2022-10-30T07:17:54;93422.25;;;10.26;86.29
10127;BME280;13080;42.608;23.362;2022-10-30T07:20:21;93419.28;;;10.28;86.27
10127;BME280;13080;42.608;23.362;2022-10-30T07:22:48;93419.09;;;10.15;85.19
10127;BME280;13080;42.608;23.362;2022-10-30T07:25:15;93427.09;;;10.15;83.66
10127;BME280;13080;42.608;23.362;2022-10-30T07:27:42;93426.78;;;10.17;83.63
10127;BME280;13080;42.608;23.362;2022-10-30T07:30:12;93432.28;;;10.20;83.16
10127;BME280;13080;42.608;23.362;2022-10-30T07:32:39;93426.78;;;10.17;82.90
10127;BME280;13080;42.608;23.362;2022-10-30T07:35:07;93419.72;;;10.12;82.96
10127;BME280;13080;42.608;23.362;2022-10-30T07:37:52;93417.81;;;10.04;84.05
10127;BME280;13080;42.608;23.362;2022-10-30T07:40:19;93417.22;;;10.07;84.44
10127;BME280;13080;42.608;23.362;2022-10-30T07:42:46;93421.16;;;10.18;83.99
10127;BME280;13080;42.608;23.362;2022-10-30T07:45:14;93411.00;;;10.29;83.08
10127;BME280;13080;42.608;23.362;2022-10-30T07:47:41;93422.59;;;10.33;83.36
10127;BME280;13080;42.608;23.362;2022-10-30T07:50:09;93425.13;;;10.38;83.87
10127;BME280;13080;42.608;23.362;2022-10-30T07:52:36;93426.84;;;10.52;83.23
10127;BME280;13080;42.608;23.362;2022-10-30T07:55:04;93424.78;;;10.57;81.78
10127;BME280;13080;42.608;23.362;2022-10-30T07:57:34;93421.66;;;10.81;79.99
10127;BME280;13080;42.608;23.362;2022-10-30T08:00:01;93408.13;;;10.87;79.49
10127;BME280;13080;42.608;23.362;2022-10-30T08:02:29;93403.72;;;10.91;79.30
10127;BME280;13080;42.608;23.362;2022-10-30T08:04:56;93403.25;;;10.97;79.38
10127;BME280;13080;42.608;23.362;2022-10-30T08:07:22;93399.91;;;11.00;79.58
10127;BME280;13080;42.608;23.362;2022-10-30T08:09:49;93398.94;;;11.14;79.77
10127;BME280;13080;42.608;23.362;2022-10-30T08:12:16;93394.81;;;11.25;78.29
10127;BME280;13080;42.608;23.362;2022-10-30T08:14:43;93397.72;;;11.50;77.62
10127;BME280;13080;42.608;23.362;2022-10-30T08:17:09;93396.72;;;11.63;77.43
10127;BME280;13080;42.608;23.362;2022-10-30T08:19:37;93389.91;;;11.74;76.25
10127;BME280;13080;42.608;23.362;2022-10-30T08:22:04;93398.31;;;11.94;75.45
10127;BME280;13080;42.608;23.362;2022-10-30T08:24:31;93390.09;;;11.99;75.69
10127;BME280;13080;42.608;23.362;2022-10-30T08:26:58;93385.31;;;12.13;74.90
10127;BME280;13080;42.608;23.362;2022-10-30T08:29:24;93392.00;;;12.19;75.65
10127;BME280;13080;42.608;23.362;2022-10-30T08:31:51;93391.97;;;12.28;74.35
10127;BME280;13080;42.608;23.362;2022-10-30T08:34:18;93390.00;;;12.37;74.85
10127;BME280;13080;42.608;23.362;2022-10-30T08:36:48;93388.03;;;12.67;71.76
10127;BME280;13080;42.608;23.362;2022-10-30T08:39:15;93381.63;;;12.81;71.58
10127;BME280;13080;42.608;23.362;2022-10-30T08:41:42;93398.84;;;12.92;69.99
10127;BME280;13080;42.608;23.362;2022-10-30T08:44:08;93397.72;;;12.93;70.68
10127;BME280;13080;42.608;23.362;2022-10-30T08:46:35;93391.25;;;12.94;71.01
10127;BME280;13080;42.608;23.362;2022-10-30T08:49:02;93397.63;;;13.02;70.71
10127;BME280;13080;42.608;23.362;2022-10-30T08:51:31;93395.78;;;13.15;69.64
10127;BME280;13080;42.608;23.362;2022-10-30T08:53:59;93398.22;;;13.20;69.12
10127;BME280;13080;42.608;23.362;2022-10-30T08:56:26;93401.03;;;13.23;69.53
10127;BME280;13080;42.608;23.362;2022-10-30T08:58:53;93389.34;;;13.28;69.27
10127;BME280;13080;42.608;23.362;2022-10-30T09:01:19;93386.69;;;13.28;70.61
10127;BME280;13080;42.608;23.362;2022-10-30T09:03:46;93377.41;;;13.38;69.34
10127;BME280;13080;42.608;23.362;2022-10-30T09:06:13;93376.75;;;13.41;70.65
10127;BME280;13080;42.608;23.362;2022-10-30T09:08:40;93375.84;;;13.49;69.95
10127;BME280;13080;42.608;23.362;2022-10-30T09:11:08;93368.59;;;13.49;70.15
10127;BME280;13080;42.608;23.362;2022-10-30T09:13:35;93370.97;;;13.63;70.17
10127;BME280;13080;42.608;23.362;2022-10-30T09:16:01;93371.06;;;13.67;71.24
10127;BME280;13080;42.608;23.362;2022-10-30T09:18:29;93372.63;;;13.80;70.41
10127;BME280;13080;42.608;23.362;2022-10-30T09:20:56;93373.28;;;14.02;69.28
10127;BME280;13080;42.608;23.362;2022-10-30T09:23:22;93375.16;;;14.01;69.07
10127;BME280;13080;42.608;23.362;2022-10-30T09:25:49;93369.03;;;14.01;69.96
10127;BME280;13080;42.608;23.362;2022-10-30T09:28:17;93366.75;;;14.27;68.37
10127;BME280;13080;42.608;23.362;2022-10-30T09:30:44;93367.44;;;14.24;68.24
10127;BME280;13080;42.608;23.362;2022-10-30T09:33:13;93370.25;;;14.16;69.42
10127;BME280;13080;42.608;23.362;2022-10-30T09:35:40;93368.09;;;14.21;69.36
10127;BME280;13080;42.608;23.362;2022-10-30T09:38:06;93366.28;;;14.25;67.86
10127;BME280;13080;42.608;23.362;2022-10-30T09:40:43;93370.19;;;14.28;68.27
10127;BME280;13080;42.608;23.362;2022-10-30T09:43:24;93371.38;;;14.55;66.87
10127;BME280;13080;42.608;23.362;2022-10-30T09:46:15;93353.81;;;14.45;67.28
10127;BME280;13080;42.608;23.362;2022-10-30T09:48:58;93355.94;;;14.52;67.98
10127;BME280;13080;42.608;23.362;2022-10-30T09:51:44;93353.69;;;14.66;68.43
10127;BME280;13080;42.608;23.362;2022-10-30T09:54:23;93355.25;;;14.67;68.77
10127;BME280;13080;42.608;23.362;2022-10-30T09:57:01;93342.28;;;14.57;68.32
10127;BME280;13080;42.608;23.362;2022-10-30T09:59:40;93334.09;;;14.66;68.06
10127;BME280;13080;42.608;23.362;2022-10-30T10:02:33;93335.88;;;14.90;68.45
10127;BME280;13080;42.608;23.362;2022-10-30T10:05:05;93330.63;;;15.09;66.42
10127;BME280;13080;42.608;23.362;2022-10-30T10:07:40;93327.84;;;15.22;66.20
10127;BME280;13080;42.608;23.362;2022-10-30T10:10:13;93324.72;;;15.20;66.18
10127;BME280;13080;42.608;23.362;2022-10-30T10:12:44;93321.25;;;15.35;65.33
10127;BME280;13080;42.608;23.362;2022-10-30T10:15:19;93316.56;;;15.48;65.26
10127;BME280;13080;42.608;23.362;2022-10-30T10:17:47;93315.09;;;15.50;65.54
10127;BME280;13080;42.608;23.362;2022-10-30T10:20:16;93312.22;;;15.59;64.90
10127;BME280;13080;42.608;23.362;2022-10-30T10:22:49;93322.38;;;15.66;64.06
10127;BME280;13080;42.608;23.362;2022-10-30T10:25:18;93311.97;;;15.80;63.05
10127;BME280;13080;42.608;23.362;2022-10-30T10:27:56;93303.88;;;15.80;62.88
10127;BME280;13080;42.608;23.362;2022-10-30T10:30:30;93300.75;;;15.78;63.54
10127;BME280;13080;42.608;23.362;2022-10-30T10:33:19;93290.53;;;15.84;62.91
10127;BME280;13080;42.608;23.362;2022-10-30T10:35:57;93292.75;;;16.17;61.07
10127;BME280;13080;42.608;23.362;2022-10-30T10:38:37;93283.06;;;16.12;61.88
10127;BME280;13080;42.608;23.362;2022-10-30T10:41:12;93284.06;;;16.24;62.01
10127;BME280;13080;42.608;23.362;2022-10-30T10:43:57;93290.56;;;16.42;60.33
10127;BME280;13080;42.608;23.362;2022-10-30T10:46:36;93290.84;;;16.56;59.77
10127;BME280;13080;42.608;23.362;2022-10-30T10:49:19;93289.44;;;16.82;58.70
10127;BME280;13080;42.608;23.362;2022-10-30T10:51:53;93282.19;;;16.86;56.77
10127;BME280;13080;42.608;23.362;2022-10-30T10:54:23;93284.25;;;16.93;56.07
10127;BME280;13080;42.608;23.362;2022-10-30T10:56:51;93284.50;;;16.88;56.28
10127;BME280;13080;42.608;23.362;2022-10-30T10:59:20;93274.59;;;16.92;56.51
10127;BME280;13080;42.608;23.362;2022-10-30T11:01:59;93281.25;;;16.98;54.60
10127;BME280;13080;42.608;23.362;2022-10-30T11:04:38;93272.97;;;17.10;54.44
10127;BME280;13080;42.608;23.362;2022-10-30T11:07:18;93268.41;;;17.14;53.54
10127;BME280;13080;42.608;23.362;2022-10-30T11:09:47;93263.31;;;17.32;53.21
10127;BME280;13080;42.608;23.362;2022-10-30T11:12:18;93261.38;;;17.33;53.76
10127;BME280;13080;42.608;23.362;2022-10-30T11:14:46;93255.19;;;17.29;53.68
10127;BME280;13080;42.608;23.362;2022-10-30T11:17:19;93248.22;;;17.28;53.87
10127;BME280;13080;42.608;23.362;2022-10-30T11:19:48;93242.22;;;17.38;54.74
10127;BME280;13080;42.608;23.362;2022-10-30T11:22:21;93240.56;;;17.56;54.26
10127;BME280;13080;42.608;23.362;2022-10-30T11:24:51;93242.09;;;17.57;54.14
10127;BME280;13080;42.608;23.362;2022-10-30T11:27:24;93232.91;;;17.62;53.71
10127;BME280;13080;42.608;23.362;2022-10-30T11:29:55;93231.53;;;17.72;53.03
10127;BME280;13080;42.608;23.362;2022-10-30T11:32:26;93229.09;;;17.63;53.63
10127;BME280;13080;42.608;23.362;2022-10-30T11:35:00;93232.72;;;17.74;53.51
10127;BME280;13080;42.608;23.362;2022-10-30T11:37:29;93229.88;;;17.90;53.35
10127;BME280;13080;42.608;23.362;2022-10-30T11:40:05;93220.75;;;18.02;52.25
10127;BME280;13080;42.608;23.362;2022-10-30T11:42:33;93226.22;;;18.05;53.35
10127;BME280;13080;42.608;23.362;2022-10-30T11:45:00;93222.34;;;18.06;53.05
10127;BME280;13080;42.608;23.362;2022-10-30T11:47:31;93218.25;;;18.16;52.79
10127;BME280;13080;42.608;23.362;2022-10-30T11:49:59;93211.72;;;18.21;52.00
10127;BME280;13080;42.608;23.362;2022-10-30T11:52:27;93213.41;;;18.33;50.13
10127;BME280;13080;42.608;23.362;2022-10-30T11:54:58;93216.16;;;18.36;50.00
10127;BME280;13080;42.608;23.362;2022-10-30T11:57:32;93212.72;;;18.43;50.12
10127;BME280;13080;42.608;23.362;2022-10-30T12:00:02;93210.75;;;18.36;51.28
10127;BME280;13080;42.608;23.362;2022-10-30T12:02:39;93207.03;;;18.52;48.58
10127;BME280;13080;42.608;23.362;2022-10-30T12:05:29;93205.00;;;18.41;49.14
10127;BME280;13080;42.608;23.362;2022-10-30T12:08:16;93216.22;;;18.43;49.01
10127;BME280;13080;42.608;23.362;2022-10-30T12:10:45;93204.63;;;18.43;49.17
10127;BME280;13080;42.608;23.362;2022-10-30T12:13:14;93200.00;;;18.43;49.34
10127;BME280;13080;42.608;23.362;2022-10-30T12:15:42;93201.25;;;18.53;48.31
10127;BME280;13080;42.608;23.362;2022-10-30T12:18:18;93202.94;;;18.65;47.89
10127;BME280;13080;42.608;23.362;2022-10-30T12:20:50;93201.38;;;18.64;47.85
10127;BME280;13080;42.608;23.362;2022-10-30T12:23:20;93197.44;;;18.58;49.05
10127;BME280;13080;42.608;23.362;2022-10-30T12:25:51;93191.97;;;18.51;50.08
10127;BME280;13080;42.608;23.362;2022-10-30T12:28:21;93197.44;;;18.58;48.71
10127;BME280;13080;42.608;23.362;2022-10-30T12:30:51;93199.03;;;18.62;47.71
10127;BME280;13080;42.608;23.362;2022-10-30T12:33:24;93192.50;;;18.63;47.72
10127;BME280;13080;42.608;23.362;2022-10-30T12:35:56;93192.94;;;18.69;46.89
10127;BME280;13080;42.608;23.362;2022-10-30T12:38:27;93189.44;;;18.68;47.38
10127;BME280;13080;42.608;23.362;2022-10-30T12:41:01;93184.81;;;18.65;48.14
10127;BME280;13080;42.608;23.362;2022-10-30T12:43:31;93184.81;;;18.69;47.28
10127;BME280;13080;42.608;23.362;2022-10-30T12:46:14;93184.09;;;18.76;47.55
10127;BME280;13080;42.608;23.362;2022-10-30T12:48:50;93172.47;;;18.68;47.63
10127;BME280;13080;42.608;23.362;2022-10-30T12:51:23;93174.81;;;18.73;47.61
10127;BME280;13080;42.608;23.362;2022-10-30T12:53:58;93176.09;;;18.83;47.21
10127;BME280;13080;42.608;23.362;2022-10-30T12:56:30;93175.22;;;18.75;46.93
10127;BME280;13080;42.608;23.362;2022-10-30T12:59:15;93179.91;;;18.78;47.61
10127;BME280;13080;42.608;23.362;2022-10-30T13:01:50;93183.06;;;18.87;47.10
10127;BME280;13080;42.608;23.362;2022-10-30T13:04:21;93181.63;;;18.97;47.03
10127;BME280;13080;42.608;23.362;2022-10-30T13:06:53;93172.81;;;19.07;46.98
10127;BME280;13080;42.608;23.362;2022-10-30T13:09:26;93166.72;;;19.18;47.30